Terminal Aerodrome Forecast
Issued by NWS

Home | Current Version | Previous Version | Text Only | Print | Product List | Glossary On
Versions: 1 2 3 4 5 6 7 8 9 10 11 12 13 14 15 16 17 18 19
000
FTUS46 KLOX 171600 AAC
TAFSBP
TAF AMD
KSBP 171601Z 1716/1812 VRB03KT 4SM BR SCT004
      TEMPO 1716/1717 1SM BR BKN002
     FM171700 31007KT P6SM SKC
     FM172000 31015G22KT P6SM SCT100
     FM180300 31007KT 5SM BR BKN007
     FM180600 VRB03KT 5SM BR OVC003
     FM180900 VRB03KT 2SM BR OVC002=

USA.gov is the U.S. government's official web portal to all federal, state and local government web resources and services.